Time;durP1;ratioP1;P1;durP2;ratioP2;P2;SDS_P1;SDS_P2;PMS_P1;PMS_P2;Temp;Humidity;BMP_temperature;BMP_pressure;BME280_temperature;BME280_humidity;BME280_pressure;Samples;Min_cycle;Max_cycle;Signal;HPM_P1;HPM_P2
2023/09/26 00:02:10;;;;;;;7.38;6.68;;;;;;;;;;5079165;28;20052;-78
2023/09/26 00:04:37;;;;;;;9.23;7.70;;;;;;;;;;5079169;28;20543;-78
2023/09/26 00:07:03;;;;;;;7.72;7.13;;;;;;;;;;5079109;28;20419;-79
2023/09/26 00:09:30;;;;;;;8.52;7.68;;;;;;;;;;5079326;28;20052;-79
2023/09/26 00:11:57;;;;;;;8.73;8.00;;;;;;;;;;5097378;28;20087;-78
2023/09/26 00:14:23;;;;;;;11.73;9.07;;;;;;;;;;5079849;28;20482;-79
2023/09/26 00:16:49;;;;;;;10.02;8.45;;;;;;;;;;5078788;28;20056;-79
2023/09/26 00:19:15;;;;;;;8.55;7.75;;;;;;;;;;5079223;28;20047;-79
2023/09/26 00:21:41;;;;;;;8.60;7.80;;;;;;;;;;5078785;28;20052;-79
2023/09/26 00:24:07;;;;;;;9.45;8.50;;;;;;;;;;5078839;28;20491;-79
2023/09/26 00:26:33;;;;;;;9.15;8.45;;;;;;;;;;5078748;28;20488;-79
2023/09/26 00:28:59;;;;;;;9.50;8.48;;;;;;;;;;5062379;28;20128;-79
2023/09/26 00:31:25;;;;;;;10.55;9.45;;;;;;;;;;5079391;28;20048;-79
2023/09/26 00:33:53;;;;;;;9.15;8.25;;;;;;;;;;5096506;28;20048;-78
2023/09/26 00:36:19;;;;;;;9.95;8.98;;;;;;;;;;5078594;28;20447;-79
2023/09/26 00:38:45;;;;;;;9.55;8.82;;;;;;;;;;5078506;28;20052;-79
2023/09/26 00:41:12;;;;;;;10.38;9.48;;;;;;;;;;5078541;28;20059;-79
2023/09/26 00:43:38;;;;;;;9.98;9.27;;;;;;;;;;5096854;28;20087;-79
2023/09/26 00:46:05;;;;;;;10.02;9.10;;;;;;;;;;5096279;28;20044;-78
2023/09/26 00:48:32;;;;;;;11.15;9.45;;;;;;;;;;5078344;28;20040;-78
2023/09/26 00:50:58;;;;;;;10.82;9.75;;;;;;;;;;5078515;28;20050;-78
2023/09/26 00:53:25;;;;;;;9.18;8.45;;;;;;;;;;5096117;28;20130;-79
2023/09/26 00:55:52;;;;;;;11.18;9.48;;;;;;;;;;5079049;28;20047;-79
2023/09/26 00:58:20;;;;;;;10.55;9.65;;;;;;;;;;5078139;28;20048;-79
2023/09/26 01:00:48;;;;;;;10.60;9.75;;;;;;;;;;5077010;28;20157;-79
2023/09/26 01:03:14;;;;;;;11.45;10.65;;;;;;;;;;5061454;28;20384;-78
2023/09/26 01:05:40;;;;;;;10.60;9.77;;;;;;;;;;5095920;28;20044;-79
2023/09/26 01:08:06;;;;;;;12.13;11.07;;;;;;;;;;5078024;28;20051;-79
2023/09/26 01:10:32;;;;;;;11.82;10.85;;;;;;;;;;5095756;28;20048;-79
2023/09/26 01:12:58;;;;;;;11.05;10.15;;;;;;;;;;5078104;28;20361;-78
2023/09/26 01:15:44;;;;;;;12.43;11.18;;;;;;;;;;5078665;28;20079;-78
2023/09/26 01:18:12;;;;;;;11.25;10.38;;;;;;;;;;5077133;28;20055;-78
2023/09/26 01:20:38;;;;;;;12.50;11.50;;;;;;;;;;5077725;28;20060;-78
2023/09/26 01:23:06;;;;;;;12.57;11.35;;;;;;;;;;5078464;28;20044;-79
2023/09/26 01:25:33;;;;;;;12.88;11.63;;;;;;;;;;5077635;28;20468;-78
2023/09/26 01:28:06;;;;;;;14.32;13.23;;;;;;;;;;5077608;28;20137;-78
2023/09/26 01:30:33;;;;;;;11.98;10.95;;;;;;;;;;5046173;28;20063;-78
2023/09/26 01:33:00;;;;;;;12.45;11.45;;;;;;;;;;5077808;28;20073;-78
2023/09/26 01:35:26;;;;;;;11.88;11.02;;;;;;;;;;5060776;28;20049;-79
2023/09/26 01:37:52;;;;;;;13.07;12.05;;;;;;;;;;5095118;28;20052;-79
2023/09/26 01:40:19;;;;;;;12.93;11.82;;;;;;;;;;5060853;28;20105;-79
2023/09/26 01:42:45;;;;;;;12.13;11.15;;;;;;;;;;5077332;28;20062;-78
2023/09/26 01:45:11;;;;;;;11.98;11.00;;;;;;;;;;5077273;28;20047;-78
2023/09/26 01:47:45;;;;;;;12.07;11.07;;;;;;;;;;5095046;28;20055;-79
2023/09/26 01:50:12;;;;;;;11.65;10.65;;;;;;;;;;5077125;28;20050;-78
2023/09/26 01:52:38;;;;;;;13.05;12.05;;;;;;;;;;5059765;28;20040;-78
2023/09/26 01:55:08;;;;;;;13.23;12.13;;;;;;;;;;5060200;28;20109;-78
2023/09/26 01:57:34;;;;;;;12.00;11.07;;;;;;;;;;5094898;28;20069;-79
2023/09/26 02:00:10;;;;;;;12.85;11.85;;;;;;;;;;5044694;28;20044;-78
2023/09/26 02:02:38;;;;;;;12.25;11.23;;;;;;;;;;5062172;28;20055;-78
2023/09/26 02:05:04;;;;;;;12.73;11.73;;;;;;;;;;5077218;28;20048;-78
2023/09/26 02:07:31;;;;;;;12.07;11.20;;;;;;;;;;5060091;28;20126;-78
2023/09/26 02:09:57;;;;;;;12.32;11.52;;;;;;;;;;5077636;28;20376;-78
2023/09/26 02:12:23;;;;;;;12.00;10.95;;;;;;;;;;5077139;28;20040;-78
2023/09/26 02:14:49;;;;;;;12.35;11.50;;;;;;;;;;5060352;28;20048;-79
2023/09/26 02:17:16;;;;;;;12.07;10.85;;;;;;;;;;5076289;28;20052;-78
2023/09/26 02:19:42;;;;;;;11.95;10.90;;;;;;;;;;5094601;28;20561;-78
2023/09/26 02:22:08;;;;;;;12.15;10.98;;;;;;;;;;5094397;28;20044;-78
2023/09/26 02:24:34;;;;;;;12.02;11.05;;;;;;;;;;5076703;28;20052;-79
2023/09/26 02:27:01;;;;;;;11.40;10.60;;;;;;;;;;5077237;28;20368;-79
2023/09/26 02:29:28;;;;;;;12.45;11.32;;;;;;;;;;5059948;28;20046;-78
2023/09/26 02:31:54;;;;;;;13.05;12.05;;;;;;;;;;5076214;28;20048;-78
2023/09/26 02:34:22;;;;;;;12.35;11.25;;;;;;;;;;5077187;28;20044;-79
2023/09/26 02:36:48;;;;;;;11.35;10.45;;;;;;;;;;5076363;28;20499;-79
2023/09/26 02:39:14;;;;;;;12.00;10.98;;;;;;;;;;5059706;28;20048;-78
2023/09/26 02:41:40;;;;;;;13.48;12.40;;;;;;;;;;5060516;28;20066;-79
2023/09/26 02:44:06;;;;;;;12.88;11.88;;;;;;;;;;5094901;28;20380;-78
2023/09/26 02:46:33;;;;;;;13.48;12.48;;;;;;;;;;5076152;28;20491;-78
2023/09/26 02:49:00;;;;;;;13.10;12.00;;;;;;;;;;5076215;28;20080;-78
2023/09/26 02:51:26;;;;;;;11.68;10.77;;;;;;;;;;5059689;28;20101;-78
2023/09/26 02:53:53;;;;;;;11.57;10.68;;;;;;;;;;5076322;28;20091;-78
2023/09/26 02:56:19;;;;;;;12.85;11.95;;;;;;;;;;5094519;28;20055;-78
2023/09/26 02:58:45;;;;;;;12.55;11.65;;;;;;;;;;5075906;28;20044;-79
2023/09/26 03:01:17;;;;;;;10.90;10.10;;;;;;;;;;5076236;28;20468;-78
2023/09/26 03:03:43;;;;;;;11.85;10.98;;;;;;;;;;5076806;28;20040;-79
2023/09/26 03:06:09;;;;;;;12.27;11.27;;;;;;;;;;5076836;28;20052;-78
2023/09/26 03:08:36;;;;;;;12.70;11.60;;;;;;;;;;5059601;28;20048;-78
2023/09/26 03:11:03;;;;;;;14.02;12.98;;;;;;;;;;5058884;28;20037;-78
2023/09/26 03:13:37;;;;;;;13.70;12.40;;;;;;;;;;5094302;28;20098;-78
2023/09/26 03:16:07;;;;;;;14.32;12.32;;;;;;;;;;5076748;28;20347;-78
2023/09/26 03:18:33;;;;;;;12.73;11.73;;;;;;;;;;5075181;28;20059;-79
2023/09/26 03:21:02;;;;;;;12.07;10.98;;;;;;;;;;5058876;28;20098;-78
2023/09/26 03:23:29;;;;;;;12.73;11.73;;;;;;;;;;5094723;28;20527;-78
2023/09/26 03:25:56;;;;;;;14.32;13.20;;;;;;;;;;5063630;28;20396;-79
2023/09/26 03:28:22;;;;;;;14.48;13.38;;;;;;;;;;5079897;28;20098;-78
2023/09/26 03:30:48;;;;;;;12.13;11.32;;;;;;;;;;5079805;28;20071;-78
2023/09/26 03:33:14;;;;;;;11.90;10.88;;;;;;;;;;5079863;28;20097;-78
2023/09/26 03:35:40;;;;;;;12.27;11.25;;;;;;;;;;5079814;28;20063;-78
2023/09/26 03:38:06;;;;;;;11.70;10.75;;;;;;;;;;5079704;28;20044;-78
2023/09/26 03:40:32;;;;;;;11.23;10.15;;;;;;;;;;5079697;28;20044;-78
2023/09/26 03:42:58;;;;;;;12.00;10.95;;;;;;;;;;5079907;28;20132;-78
2023/09/26 03:45:25;;;;;;;12.68;11.68;;;;;;;;;;5097409;28;20047;-78
2023/09/26 03:47:51;;;;;;;14.68;13.30;;;;;;;;;;5079868;28;20181;-78
2023/09/26 03:50:17;;;;;;;12.02;11.07;;;;;;;;;;5079499;28;20135;-78
2023/09/26 03:52:43;;;;;;;12.00;11.25;;;;;;;;;;5078783;28;20040;-78
2023/09/26 03:55:10;;;;;;;13.05;11.88;;;;;;;;;;5097297;28;20047;-78
2023/09/26 03:57:36;;;;;;;14.48;13.38;;;;;;;;;;5079310;28;20076;-78
2023/09/26 04:00:16;;;;;;;12.15;11.25;;;;;;;;;;5062764;28;20044;-78
2023/09/26 04:02:43;;;;;;;14.02;12.88;;;;;;;;;;5063507;28;20048;-78
2023/09/26 04:05:09;;;;;;;14.65;13.55;;;;;;;;;;5079238;28;20120;-78
2023/09/26 04:07:36;;;;;;;13.88;12.75;;;;;;;;;;5079046;28;20044;-78
2023/09/26 04:10:02;;;;;;;13.18;12.18;;;;;;;;;;5079168;28;20472;-78
2023/09/26 04:12:28;;;;;;;13.63;12.63;;;;;;;;;;5078780;28;20408;-78
2023/09/26 04:14:55;;;;;;;12.57;11.68;;;;;;;;;;5079306;28;20079;-78
2023/09/26 04:17:21;;;;;;;12.35;11.45;;;;;;;;;;5078547;28;20098;-78
2023/09/26 04:19:47;;;;;;;12.43;11.38;;;;;;;;;;5096794;28;20052;-78
2023/09/26 04:22:13;;;;;;;13.23;11.50;;;;;;;;;;5096895;28;20361;-79
2023/09/26 04:24:39;;;;;;;15.48;14.07;;;;;;;;;;5079358;28;20040;-78
2023/09/26 04:27:06;;;;;;;14.32;13.30;;;;;;;;;;5078841;28;20049;-78
2023/09/26 04:29:34;;;;;;;14.75;13.45;;;;;;;;;;5079553;28;20055;-78
2023/09/26 04:32:00;;;;;;;13.95;12.90;;;;;;;;;;5078547;28;20377;-78
2023/09/26 04:34:29;;;;;;;15.27;14.18;;;;;;;;;;5078609;28;20059;-78
2023/09/26 04:36:55;;;;;;;14.23;13.18;;;;;;;;;;5097026;28;20429;-78
2023/09/26 04:39:21;;;;;;;14.13;13.13;;;;;;;;;;5078510;28;20052;-78
2023/09/26 04:41:47;;;;;;;13.27;12.07;;;;;;;;;;5096490;28;20109;-78
2023/09/26 04:44:13;;;;;;;15.30;13.90;;;;;;;;;;5078345;28;20123;-78
2023/09/26 04:46:39;;;;;;;15.48;14.18;;;;;;;;;;5096354;28;20058;-78
2023/09/26 04:49:06;;;;;;;13.95;12.90;;;;;;;;;;5079197;28;20055;-78
2023/09/26 04:51:32;;;;;;;15.90;13.55;;;;;;;;;;5078153;28;20040;-78
2023/09/26 04:54:01;;;;;;;13.77;12.77;;;;;;;;;;5078249;28;20051;-78
2023/09/26 04:56:27;;;;;;;12.95;11.93;;;;;;;;;;5079010;28;20416;-78
2023/09/26 04:58:53;;;;;;;13.98;12.75;;;;;;;;;;5096108;28;20044;-78
2023/09/26 05:01:24;;;;;;;13.80;12.57;;;;;;;;;;5077951;28;20094;-78
2023/09/26 05:03:50;;;;;;;13.93;12.63;;;;;;;;;;5078436;28;20092;-78
2023/09/26 05:06:17;;;;;;;13.65;12.65;;;;;;;;;;5078344;28;20051;-78
2023/09/26 05:08:44;;;;;;;13.57;12.63;;;;;;;;;;5078175;28;20101;-78
2023/09/26 05:11:14;;;;;;;13.63;12.63;;;;;;;;;;5077613;28;20119;-78
2023/09/26 05:13:40;;;;;;;14.35;13.15;;;;;;;;;;5078118;28;20414;-78
2023/09/26 05:16:10;;;;;;;13.48;12.48;;;;;;;;;;5096041;28;20043;-78
2023/09/26 05:18:37;;;;;;;14.93;13.73;;;;;;;;;;5057067;28;20053;-78
2023/09/26 05:21:06;;;;;;;13.55;12.45;;;;;;;;;;5057811;28;20066;-78
2023/09/26 05:23:33;;;;;;;15.23;13.85;;;;;;;;;;5058417;28;20396;-78
2023/09/26 05:26:05;;;;;;;13.07;12.07;;;;;;;;;;5057612;28;20477;-78
2023/09/26 05:28:32;;;;;;;15.07;13.68;;;;;;;;;;5057569;28;20052;-78
2023/09/26 05:30:58;;;;;;;14.30;13.13;;;;;;;;;;5075014;28;20056;-78
2023/09/26 05:33:24;;;;;;;12.80;11.80;;;;;;;;;;5057249;28;20052;-78
2023/09/26 05:35:53;;;;;;;13.90;12.65;;;;;;;;;;5058369;28;20079;-78
2023/09/26 05:38:19;;;;;;;13.00;11.90;;;;;;;;;;5057450;28;20047;-78
2023/09/26 05:40:45;;;;;;;13.95;12.80;;;;;;;;;;5040986;28;20048;-78
2023/09/26 05:43:11;;;;;;;16.00;14.65;;;;;;;;;;5057434;28;20380;-78
2023/09/26 05:45:37;;;;;;;13.15;11.75;;;;;;;;;;5075402;28;20044;-78
2023/09/26 05:48:04;;;;;;;14.25;12.88;;;;;;;;;;5057742;28;20036;-78
2023/09/26 05:50:30;;;;;;;13.25;12.23;;;;;;;;;;5040990;28;20111;-77
2023/09/26 05:52:57;;;;;;;12.88;11.80;;;;;;;;;;5075286;28;20040;-78
2023/09/26 05:55:23;;;;;;;15.65;14.38;;;;;;;;;;5057950;28;20043;-78
2023/09/26 05:57:49;;;;;;;12.85;11.73;;;;;;;;;;5040541;28;20093;-78
2023/09/26 06:00:16;;;;;;;13.15;12.05;;;;;;;;;;5057339;28;20095;-78
2023/09/26 06:02:43;;;;;;;12.93;11.88;;;;;;;;;;5056936;28;20068;-77
2023/09/26 06:05:11;;;;;;;14.88;13.60;;;;;;;;;;5040379;28;20049;-78
2023/09/26 06:07:37;;;;;;;13.70;12.50;;;;;;;;;;5057763;28;20055;-78
2023/09/26 06:10:03;;;;;;;12.55;11.38;;;;;;;;;;5074499;28;20040;-78
2023/09/26 06:12:30;;;;;;;14.30;12.48;;;;;;;;;;5056856;28;20373;-77
2023/09/26 06:14:56;;;;;;;12.02;11.02;;;;;;;;;;5056445;28;20048;-77
2023/09/26 06:17:23;;;;;;;12.52;11.50;;;;;;;;;;5049836;28;20389;-77
2023/09/26 06:19:49;;;;;;;13.18;11.98;;;;;;;;;;5076712;28;20055;-77
2023/09/26 06:22:16;;;;;;;14.02;12.77;;;;;;;;;;5094583;28;20036;-78
2023/09/26 06:24:42;;;;;;;13.10;12.00;;;;;;;;;;5076650;28;20084;-77
2023/09/26 06:27:08;;;;;;;12.77;11.57;;;;;;;;;;5094423;28;20040;-77
2023/09/26 06:29:39;;;;;;;13.95;12.65;;;;;;;;;;5060680;28;20048;-78
2023/09/26 06:32:05;;;;;;;12.23;11.18;;;;;;;;;;5077106;28;20052;-77
2023/09/26 06:34:32;;;;;;;12.80;11.68;;;;;;;;;;5076410;28;20044;-78
2023/09/26 06:36:58;;;;;;;11.82;10.80;;;;;;;;;;5094184;28;20533;-77
2023/09/26 06:39:24;;;;;;;12.10;11.10;;;;;;;;;;5076345;28;20043;-78
2023/09/26 06:41:50;;;;;;;12.80;11.70;;;;;;;;;;5094176;28;20040;-77
2023/09/26 06:44:16;;;;;;;13.55;12.27;;;;;;;;;;5094135;28;20048;-77
2023/09/26 06:46:42;;;;;;;12.90;11.40;;;;;;;;;;5094685;28;20084;-78
2023/09/26 06:49:08;;;;;;;13.30;11.93;;;;;;;;;;5076410;28;20093;-77
2023/09/26 06:51:34;;;;;;;12.93;11.93;;;;;;;;;;5094523;28;20048;-77
2023/09/26 06:54:01;;;;;;;13.23;12.02;;;;;;;;;;5076065;28;20468;-77
2023/09/26 06:56:27;;;;;;;14.13;13.02;;;;;;;;;;5076024;28;20417;-77
2023/09/26 06:58:53;;;;;;;12.30;11.40;;;;;;;;;;5075481;28;20140;-78
2023/09/26 07:01:19;;;;;;;12.73;11.57;;;;;;;;;;5093889;28;20083;-78
2023/09/26 07:03:46;;;;;;;13.35;12.32;;;;;;;;;;5075987;28;20055;-77
2023/09/26 07:06:13;;;;;;;12.70;11.70;;;;;;;;;;5076283;28;20055;-78
2023/09/26 07:08:40;;;;;;;12.43;11.52;;;;;;;;;;5076802;28;20354;-78
2023/09/26 07:11:07;;;;;;;13.10;12.00;;;;;;;;;;5076037;28;20047;-78
2023/09/26 07:13:36;;;;;;;13.18;12.07;;;;;;;;;;5075903;28;20051;-78
2023/09/26 07:16:03;;;;;;;11.48;10.48;;;;;;;;;;5075847;28;20047;-77
2023/09/26 07:18:33;;;;;;;13.52;12.43;;;;;;;;;;5074805;28;20071;-78
2023/09/26 07:21:04;;;;;;;12.18;11.25;;;;;;;;;;5056037;28;20049;-78
2023/09/26 07:23:30;;;;;;;12.65;11.75;;;;;;;;;;5056493;28;20088;-78
2023/09/26 07:26:06;;;;;;;12.40;11.40;;;;;;;;;;5073437;28;20076;-78
2023/09/26 07:28:32;;;;;;;12.60;11.13;;;;;;;;;;5055674;28;20083;-78
2023/09/26 07:30:58;;;;;;;13.80;12.70;;;;;;;;;;5055316;28;20056;-77
2023/09/26 07:33:24;;;;;;;12.02;11.02;;;;;;;;;;5055427;28;20047;-78
2023/09/26 07:35:51;;;;;;;13.07;11.88;;;;;;;;;;5073302;28;20374;-78
2023/09/26 07:38:18;;;;;;;14.00;12.30;;;;;;;;;;5055634;28;20052;-77
2023/09/26 07:40:44;;;;;;;11.82;10.75;;;;;;;;;;5055617;28;20041;-77
2023/09/26 07:43:10;;;;;;;12.57;11.50;;;;;;;;;;5073255;28;20045;-77
2023/09/26 07:45:39;;;;;;;12.27;11.27;;;;;;;;;;5073984;28;20083;-77
2023/09/26 07:48:06;;;;;;;12.32;11.30;;;;;;;;;;5074016;28;20484;-77
2023/09/26 07:50:32;;;;;;;12.85;11.70;;;;;;;;;;5055536;28;20052;-78
2023/09/26 07:52:58;;;;;;;12.27;11.30;;;;;;;;;;5055068;28;20492;-78
2023/09/26 07:55:24;;;;;;;13.65;12.32;;;;;;;;;;5073196;28;20250;-78
2023/09/26 07:57:50;;;;;;;13.43;12.43;;;;;;;;;;5073177;28;20535;-78
2023/09/26 08:00:16;;;;;;;12.43;11.60;;;;;;;;;;5038928;28;20048;-78
2023/09/26 08:02:42;;;;;;;12.45;11.55;;;;;;;;;;5073084;28;20048;-78
2023/09/26 08:05:08;;;;;;;12.55;11.45;;;;;;;;;;5055301;28;20056;-78
2023/09/26 08:07:35;;;;;;;13.07;12.07;;;;;;;;;;5073138;28;20048;-78
2023/09/26 08:10:02;;;;;;;12.48;11.57;;;;;;;;;;5056903;28;20449;-78
2023/09/26 08:12:29;;;;;;;13.57;12.27;;;;;;;;;;5058734;28;20049;-78
2023/09/26 08:14:56;;;;;;;13.65;12.43;;;;;;;;;;5042355;28;20055;-78
2023/09/26 08:17:22;;;;;;;13.35;12.32;;;;;;;;;;5068152;28;20052;-78
2023/09/26 08:19:48;;;;;;;12.73;11.68;;;;;;;;;;5078946;28;20047;-78
2023/09/26 08:22:14;;;;;;;12.95;11.68;;;;;;;;;;5078585;28;20062;-78
2023/09/26 08:24:40;;;;;;;12.82;11.82;;;;;;;;;;5079042;28;20109;-79
2023/09/26 08:27:06;;;;;;;13.02;12.05;;;;;;;;;;5097137;28;20127;-78
2023/09/26 08:29:33;;;;;;;12.45;11.52;;;;;;;;;;5078691;28;20072;-78
2023/09/26 08:31:59;;;;;;;12.60;11.43;;;;;;;;;;5096702;28;20048;-78
2023/09/26 08:34:25;;;;;;;13.32;12.23;;;;;;;;;;5078631;28;20269;-78
2023/09/26 08:36:52;;;;;;;13.07;12.07;;;;;;;;;;5078670;28;20047;-78
2023/09/26 08:39:18;;;;;;;13.82;12.57;;;;;;;;;;5062816;28;20048;-78
2023/09/26 08:41:45;;;;;;;12.88;11.85;;;;;;;;;;5078358;28;20047;-78
2023/09/26 08:44:12;;;;;;;12.32;11.27;;;;;;;;;;5096635;28;20051;-78
2023/09/26 08:46:40;;;;;;;12.25;11.32;;;;;;;;;;5079234;28;20041;-78
2023/09/26 08:49:06;;;;;;;12.70;11.70;;;;;;;;;;5079236;28;20051;-78
2023/09/26 08:51:33;;;;;;;12.20;11.02;;;;;;;;;;5096152;28;20055;-78
2023/09/26 08:53:59;;;;;;;12.85;11.68;;;;;;;;;;5078201;28;20048;-78
2023/09/26 08:56:25;;;;;;;11.80;10.90;;;;;;;;;;5078273;28;20080;-78
2023/09/26 08:58:54;;;;;;;11.77;10.70;;;;;;;;;;5079033;28;20097;-78
2023/09/26 09:01:20;;;;;;;12.98;10.95;;;;;;;;;;5078128;28;20082;-78
2023/09/26 09:03:46;;;;;;;11.40;10.32;;;;;;;;;;5061717;28;20054;-78
2023/09/26 09:06:13;;;;;;;11.63;10.73;;;;;;;;;;5095973;28;20048;-78
2023/09/26 09:08:40;;;;;;;12.88;11.75;;;;;;;;;;5062332;28;20066;-78
2023/09/26 09:11:06;;;;;;;11.57;10.60;;;;;;;;;;5078729;28;20051;-78
2023/09/26 09:13:33;;;;;;;11.18;10.32;;;;;;;;;;5078012;28;20051;-78
2023/09/26 09:16:15;;;;;;;11.70;10.70;;;;;;;;;;5077861;28;20392;-78
2023/09/26 09:18:44;;;;;;;10.73;9.77;;;;;;;;;;5077636;28;20363;-78
2023/09/26 09:21:30;;;;;;;11.30;10.20;;;;;;;;;;5076707;28;20044;-78
2023/09/26 09:23:57;;;;;;;10.82;9.90;;;;;;;;;;5077614;28;20086;-78
2023/09/26 09:26:24;;;;;;;11.82;10.77;;;;;;;;;;5095549;28;20048;-78
2023/09/26 09:28:55;;;;;;;11.20;10.40;;;;;;;;;;5096348;28;20054;-78
2023/09/26 09:31:21;;;;;;;9.38;8.75;;;;;;;;;;5095643;28;20084;-78
2023/09/26 09:33:48;;;;;;;11.32;10.43;;;;;;;;;;5078231;28;20059;-78
2023/09/26 09:36:14;;;;;;;10.63;9.85;;;;;;;;;;5095492;28;20098;-78
2023/09/26 09:38:40;;;;;;;10.65;9.68;;;;;;;;;;5095345;28;20055;-78
2023/09/26 09:41:09;;;;;;;11.13;9.68;;;;;;;;;;5077693;28;20044;-78
2023/09/26 09:43:36;;;;;;;11.52;10.18;;;;;;;;;;5077383;28;20040;-78
2023/09/26 09:46:10;;;;;;;10.57;9.57;;;;;;;;;;5095148;28;20040;-78
2023/09/26 09:48:40;;;;;;;10.47;9.67;;;;;;;;;;5095157;28;20048;-78
2023/09/26 09:51:09;;;;;;;11.88;10.75;;;;;;;;;;5077422;28;20051;-78
2023/09/26 09:53:35;;;;;;;11.60;10.73;;;;;;;;;;5077181;28;20036;-78
2023/09/26 09:56:04;;;;;;;11.43;10.63;;;;;;;;;;5077401;28;20044;-78
2023/09/26 09:58:32;;;;;;;11.77;10.65;;;;;;;;;;5077821;28;20044;-78
2023/09/26 10:01:00;;;;;;;11.38;10.48;;;;;;;;;;5094944;28;20055;-78
2023/09/26 10:03:26;;;;;;;11.40;10.50;;;;;;;;;;5095561;28;20052;-78
2023/09/26 10:05:53;;;;;;;11.23;10.25;;;;;;;;;;5076849;28;20048;-78
2023/09/26 10:08:20;;;;;;;11.07;10.18;;;;;;;;;;5077243;28;20052;-78
2023/09/26 10:10:46;;;;;;;10.43;9.63;;;;;;;;;;5059933;28;20055;-78
2023/09/26 10:13:12;;;;;;;10.05;9.25;;;;;;;;;;5059916;28;20036;-78
2023/09/26 10:16:09;;;;;;;10.80;9.77;;;;;;;;;;5077499;28;20044;-78
2023/09/26 10:18:39;;;;;;;9.05;8.25;;;;;;;;;;5075750;28;20384;-78
2023/09/26 10:21:27;;;;;;;9.68;8.88;;;;;;;;;;5056443;28;20049;-78
2023/09/26 10:24:05;;;;;;;9.32;8.50;;;;;;;;;;5056466;28;20221;-78
2023/09/26 10:26:37;;;;;;;9.27;8.63;;;;;;;;;;5057402;28;20059;-78
2023/09/26 10:29:07;;;;;;;9.13;8.20;;;;;;;;;;5057283;28;20045;-78
2023/09/26 10:31:33;;;;;;;9.90;8.98;;;;;;;;;;5056356;28;20166;-78
2023/09/26 10:34:01;;;;;;;10.50;7.80;;;;;;;;;;5056278;28;20040;-78
2023/09/26 10:36:29;;;;;;;7.60;6.90;;;;;;;;;;5056315;28;20060;-78
2023/09/26 10:38:59;;;;;;;9.50;6.30;;;;;;;;;;5056355;28;20216;-78
2023/09/26 10:41:26;;;;;;;6.40;5.80;;;;;;;;;;5056243;28;20040;-78
2023/09/26 10:43:52;;;;;;;9.23;6.65;;;;;;;;;;5073862;28;20074;-78
2023/09/26 10:46:18;;;;;;;7.25;6.65;;;;;;;;;;5056217;28;20401;-79
2023/09/26 10:48:44;;;;;;;6.28;5.88;;;;;;;;;;5056207;28;20131;-79
2023/09/26 10:51:11;;;;;;;7.18;6.47;;;;;;;;;;5056090;28;20040;-78
2023/09/26 10:53:37;;;;;;;7.82;6.85;;;;;;;;;;5056067;28;20437;-79
2023/09/26 10:56:06;;;;;;;6.10;5.50;;;;;;;;;;5074478;28;20048;-78
2023/09/26 10:58:34;;;;;;;7.70;5.47;;;;;;;;;;5056855;28;20059;-79
2023/09/26 11:01:00;;;;;;;7.82;6.45;;;;;;;;;;5055999;28;20044;-79
2023/09/26 11:03:26;;;;;;;6.88;6.22;;;;;;;;;;5055941;28;20476;-80
2023/09/26 11:05:52;;;;;;;5.70;5.30;;;;;;;;;;5039341;28;20048;-79
2023/09/26 11:08:18;;;;;;;6.75;5.88;;;;;;;;;;5039561;28;20044;-80
2023/09/26 11:10:51;;;;;;;5.82;5.22;;;;;;;;;;5055783;28;20055;-78
2023/09/26 11:13:23;;;;;;;5.78;5.22;;;;;;;;;;5038944;28;20048;-79
2023/09/26 11:15:55;;;;;;;5.97;5.07;;;;;;;;;;5074365;28;20080;-78
2023/09/26 11:18:21;;;;;;;7.10;5.15;;;;;;;;;;5073415;28;20048;-79
2023/09/26 11:20:55;;;;;;;6.45;5.78;;;;;;;;;;5093683;28;20560;-78
2023/09/26 11:23:39;;;;;;;5.47;5.07;;;;;;;;;;5076640;28;20048;-79
2023/09/26 11:26:06;;;;;;;6.10;4.70;;;;;;;;;;5093448;28;20500;-79
2023/09/26 11:28:32;;;;;;;7.82;4.72;;;;;;;;;;5075762;28;20480;-78
2023/09/26 11:30:59;;;;;;;6.53;5.03;;;;;;;;;;5058964;28;20056;-78
2023/09/26 11:33:25;;;;;;;4.97;4.57;;;;;;;;;;5075820;28;20051;-78
2023/09/26 11:35:51;;;;;;;5.32;4.90;;;;;;;;;;5059215;28;20040;-78
2023/09/26 11:38:18;;;;;;;6.18;4.65;;;;;;;;;;5075725;28;20052;-79
2023/09/26 11:40:45;;;;;;;4.68;4.30;;;;;;;;;;5059858;28;20137;-79
2023/09/26 11:43:11;;;;;;;5.20;4.80;;;;;;;;;;5075976;28;20056;-79
2023/09/26 11:45:37;;;;;;;5.82;4.40;;;;;;;;;;5078412;28;20093;-79
2023/09/26 11:48:05;;;;;;;5.38;4.88;;;;;;;;;;5079919;28;20094;-79
2023/09/26 11:50:32;;;;;;;8.40;4.88;;;;;;;;;;5079853;28;20048;-79
2023/09/26 11:53:01;;;;;;;5.45;4.93;;;;;;;;;;5079175;28;20044;-79
2023/09/26 11:55:27;;;;;;;6.43;5.78;;;;;;;;;;5063761;28;20052;-79
2023/09/26 11:57:54;;;;;;;7.78;5.47;;;;;;;;;;5080203;28;20075;-79
2023/09/26 12:00:20;;;;;;;7.60;5.05;;;;;;;;;;5079350;28;20066;-79
2023/09/26 12:02:47;;;;;;;6.57;5.28;;;;;;;;;;5079340;28;20052;-78
2023/09/26 12:05:15;;;;;;;6.72;5.07;;;;;;;;;;5079627;28;20079;-79
2023/09/26 12:07:41;;;;;;;8.35;4.95;;;;;;;;;;5097093;28;20051;-79
2023/09/26 12:10:08;;;;;;;5.20;4.80;;;;;;;;;;5079227;28;20285;-79
2023/09/26 12:12:34;;;;;;;6.45;4.85;;;;;;;;;;5079136;28;20109;-79
2023/09/26 12:15:20;;;;;;;8.50;5.10;;;;;;;;;;5079086;28;20054;-79
2023/09/26 12:17:46;;;;;;;5.50;4.97;;;;;;;;;;5078745;28;20056;-79
2023/09/26 12:20:13;;;;;;;4.88;4.47;;;;;;;;;;5061989;28;20051;-79
2023/09/26 12:22:39;;;;;;;5.80;5.18;;;;;;;;;;5078848;28;20131;-80
2023/09/26 12:25:06;;;;;;;5.68;4.00;;;;;;;;;;5078722;28;20048;-79
2023/09/26 12:27:33;;;;;;;5.38;4.75;;;;;;;;;;5096753;28;20498;-79
2023/09/26 12:29:59;;;;;;;7.20;4.75;;;;;;;;;;5079699;28;20178;-79
2023/09/26 12:32:25;;;;;;;5.93;4.60;;;;;;;;;;5078905;28;20036;-79
2023/09/26 12:34:51;;;;;;;8.20;4.38;;;;;;;;;;5096626;28;20048;-79
2023/09/26 12:37:17;;;;;;;12.02;4.75;;;;;;;;;;5078810;28;20075;-79
2023/09/26 12:39:43;;;;;;;5.13;4.55;;;;;;;;;;5045856;28;20101;-79
2023/09/26 12:42:10;;;;;;;5.53;5.03;;;;;;;;;;5061960;28;20044;-79
2023/09/26 12:44:37;;;;;;;6.70;5.03;;;;;;;;;;5078601;28;20047;-79
2023/09/26 12:47:03;;;;;;;5.80;4.90;;;;;;;;;;5078811;28;20055;-79
2023/09/26 12:49:30;;;;;;;5.93;5.30;;;;;;;;;;5078484;28;20050;-79
2023/09/26 12:51:56;;;;;;;6.50;4.93;;;;;;;;;;5078556;28;20531;-79
2023/09/26 12:54:23;;;;;;;5.07;4.68;;;;;;;;;;5096195;28;20048;-78
2023/09/26 12:56:49;;;;;;;5.00;4.13;;;;;;;;;;5076931;28;20044;-79
2023/09/26 12:59:15;;;;;;;3.95;3.40;;;;;;;;;;5078209;28;20453;-79
2023/09/26 13:01:41;;;;;;;4.38;3.97;;;;;;;;;;5096195;28;20040;-79
2023/09/26 13:04:07;;;;;;;5.53;5.03;;;;;;;;;;5061463;28;20477;-80
2023/09/26 13:06:33;;;;;;;4.85;4.45;;;;;;;;;;5061323;28;20040;-79
2023/09/26 13:08:59;;;;;;;6.57;4.68;;;;;;;;;;5077837;28;20373;-79
2023/09/26 13:11:26;;;;;;;4.90;3.47;;;;;;;;;;5077941;28;20097;-79
2023/09/26 13:13:52;;;;;;;4.38;3.97;;;;;;;;;;5078280;28;20493;-79
2023/09/26 13:16:18;;;;;;;4.10;3.80;;;;;;;;;;5078194;28;20055;-79
2023/09/26 13:18:45;;;;;;;4.60;3.95;;;;;;;;;;5077227;28;20052;-78
2023/09/26 13:21:11;;;;;;;5.55;3.72;;;;;;;;;;5077800;28;20468;-79
2023/09/26 13:23:39;;;;;;;4.22;3.83;;;;;;;;;;5077490;28;20105;-79
2023/09/26 13:26:05;;;;;;;6.95;3.70;;;;;;;;;;5077750;28;20052;-79
2023/09/26 13:28:31;;;;;;;4.05;3.28;;;;;;;;;;5077944;28;20134;-79
2023/09/26 13:30:57;;;;;;;6.53;3.30;;;;;;;;;;5077676;28;20047;-79
2023/09/26 13:33:23;;;;;;;6.13;3.30;;;;;;;;;;5077392;28;20052;-79
2023/09/26 13:35:49;;;;;;;4.43;2.97;;;;;;;;;;5077332;28;20076;-79
2023/09/26 13:38:15;;;;;;;3.60;3.30;;;;;;;;;;5060869;28;20480;-79
2023/09/26 13:40:43;;;;;;;5.75;3.83;;;;;;;;;;5077485;28;20044;-78
2023/09/26 13:43:09;;;;;;;5.25;3.33;;;;;;;;;;5077184;28;20544;-79
2023/09/26 13:45:35;;;;;;;3.75;2.83;;;;;;;;;;5044549;28;20059;-79
2023/09/26 13:48:01;;;;;;;6.38;3.13;;;;;;;;;;5077360;28;20048;-78
2023/09/26 13:50:27;;;;;;;3.95;3.22;;;;;;;;;;5060397;28;20047;-79
2023/09/26 13:52:53;;;;;;;3.42;3.22;;;;;;;;;;5076941;28;20036;-80
2023/09/26 13:55:20;;;;;;;3.92;3.00;;;;;;;;;;5060593;28;20530;-81
2023/09/26 13:57:46;;;;;;;4.07;2.63;;;;;;;;;;5060579;28;20055;-81
2023/09/26 14:00:13;;;;;;;4.00;3.00;;;;;;;;;;5061271;28;20044;-80
2023/09/26 14:02:39;;;;;;;8.30;3.38;;;;;;;;;;5077337;28;20119;-81
2023/09/26 14:05:06;;;;;;;3.30;3.00;;;;;;;;;;5060716;28;20178;-81
2023/09/26 14:07:32;;;;;;;3.08;2.80;;;;;;;;;;5076809;28;20048;-81
2023/09/26 14:09:58;;;;;;;3.72;3.25;;;;;;;;;;5077254;28;20048;-80
2023/09/26 14:12:24;;;;;;;6.13;3.55;;;;;;;;;;5076570;28;20089;-80
2023/09/26 14:14:50;;;;;;;9.68;3.35;;;;;;;;;;5094616;28;20055;-79
2023/09/26 14:17:16;;;;;;;3.35;2.92;;;;;;;;;;5076175;28;20484;-79
2023/09/26 14:19:43;;;;;;;4.85;3.13;;;;;;;;;;5077404;28;20127;-80
2023/09/26 14:22:09;;;;;;;2.88;2.67;;;;;;;;;;5076496;28;20047;-79
2023/09/26 14:24:35;;;;;;;4.97;2.97;;;;;;;;;;5076885;28;20048;-79
2023/09/26 14:27:01;;;;;;;3.88;3.25;;;;;;;;;;5076603;28;20040;-79